sensor_id;sensor_type;location;lat;lon;timestamp;P1;durP1;ratioP1;P2;durP2;ratioP2
59950;SDS011;45812;53.540;9.774;2023-05-07T00:00:07;13.63;;;7.07;;
59950;SDS011;45812;53.540;9.774;2023-05-07T00:02:33;14.45;;;7.53;;
59950;SDS011;45812;53.540;9.774;2023-05-07T00:04:59;15.70;;;7.95;;
59950;SDS011;45812;53.540;9.774;2023-05-07T00:07:24;16.65;;;6.95;;
59950;SDS011;45812;53.540;9.774;2023-05-07T00:09:49;13.10;;;7.13;;
59950;SDS011;45812;53.540;9.774;2023-05-07T00:12:14;15.48;;;7.97;;
59950;SDS011;45812;53.540;9.774;2023-05-07T00:14:40;12.38;;;6.82;;
59950;SDS011;45812;53.540;9.774;2023-05-07T00:17:06;15.40;;;7.53;;
59950;SDS011;45812;53.540;9.774;2023-05-07T00:19:31;15.93;;;7.65;;
59950;SDS011;45812;53.540;9.774;2023-05-07T00:21:56;14.68;;;7.63;;
59950;SDS011;45812;53.540;9.774;2023-05-07T00:24:23;13.23;;;6.75;;
59950;SDS011;45812;53.540;9.774;2023-05-07T00:26:48;13.38;;;7.40;;
59950;SDS011;45812;53.540;9.774;2023-05-07T00:29:13;12.63;;;6.63;;
59950;SDS011;45812;53.540;9.774;2023-05-07T00:31:39;13.43;;;6.90;;
59950;SDS011;45812;53.540;9.774;2023-05-07T00:34:04;11.75;;;6.38;;
59950;SDS011;45812;53.540;9.774;2023-05-07T00:36:29;14.50;;;7.75;;
59950;SDS011;45812;53.540;9.774;2023-05-07T00:38:56;15.45;;;6.32;;
59950;SDS011;45812;53.540;9.774;2023-05-07T00:41:23;13.13;;;6.50;;
59950;SDS011;45812;53.540;9.774;2023-05-07T00:43:49;12.90;;;6.80;;
59950;SDS011;45812;53.540;9.774;2023-05-07T00:46:16;12.02;;;6.97;;
59950;SDS011;45812;53.540;9.774;2023-05-07T00:48:42;12.00;;;6.53;;
59950;SDS011;45812;53.540;9.774;2023-05-07T00:51:07;14.63;;;7.03;;
59950;SDS011;45812;53.540;9.774;2023-05-07T00:53:33;16.95;;;7.55;;
59950;SDS011;45812;53.540;9.774;2023-05-07T00:55:59;15.55;;;8.25;;
59950;SDS011;45812;53.540;9.774;2023-05-07T00:58:25;16.98;;;7.88;;
59950;SDS011;45812;53.540;9.774;2023-05-07T01:00:51;17.23;;;7.30;;
59950;SDS011;45812;53.540;9.774;2023-05-07T01:03:16;12.40;;;6.60;;
59950;SDS011;45812;53.540;9.774;2023-05-07T01:05:42;15.65;;;7.40;;
59950;SDS011;45812;53.540;9.774;2023-05-07T01:08:10;12.90;;;6.90;;
59950;SDS011;45812;53.540;9.774;2023-05-07T01:10:35;14.65;;;6.82;;
59950;SDS011;45812;53.540;9.774;2023-05-07T01:13:00;12.30;;;6.72;;
59950;SDS011;45812;53.540;9.774;2023-05-07T01:15:26;11.35;;;6.18;;
59950;SDS011;45812;53.540;9.774;2023-05-07T01:17:52;13.73;;;6.63;;
59950;SDS011;45812;53.540;9.774;2023-05-07T01:20:17;12.25;;;6.70;;
59950;SDS011;45812;53.540;9.774;2023-05-07T01:22:43;15.13;;;6.15;;
59950;SDS011;45812;53.540;9.774;2023-05-07T01:25:09;12.93;;;6.97;;
59950;SDS011;45812;53.540;9.774;2023-05-07T01:27:35;13.38;;;6.70;;
59950;SDS011;45812;53.540;9.774;2023-05-07T01:30:02;8.95;;;5.72;;
59950;SDS011;45812;53.540;9.774;2023-05-07T01:32:35;10.85;;;6.45;;
59950;SDS011;45812;53.540;9.774;2023-05-07T01:35:05;12.68;;;6.03;;
59950;SDS011;45812;53.540;9.774;2023-05-07T01:37:32;10.88;;;5.43;;
59950;SDS011;45812;53.540;9.774;2023-05-07T01:39:57;10.25;;;5.28;;
59950;SDS011;45812;53.540;9.774;2023-05-07T01:42:23;9.98;;;5.38;;
59950;SDS011;45812;53.540;9.774;2023-05-07T01:44:48;10.35;;;5.53;;
59950;SDS011;45812;53.540;9.774;2023-05-07T01:47:14;11.45;;;5.72;;
59950;SDS011;45812;53.540;9.774;2023-05-07T01:49:39;9.88;;;5.70;;
59950;SDS011;45812;53.540;9.774;2023-05-07T01:52:05;11.98;;;6.00;;
59950;SDS011;45812;53.540;9.774;2023-05-07T01:54:31;8.73;;;5.10;;
59950;SDS011;45812;53.540;9.774;2023-05-07T01:56:56;9.27;;;5.75;;
59950;SDS011;45812;53.540;9.774;2023-05-07T01:59:22;11.05;;;5.47;;
59950;SDS011;45812;53.540;9.774;2023-05-07T02:01:47;11.10;;;5.80;;
59950;SDS011;45812;53.540;9.774;2023-05-07T02:04:12;12.85;;;5.65;;
59950;SDS011;45812;53.540;9.774;2023-05-07T02:06:38;9.55;;;5.60;;
59950;SDS011;45812;53.540;9.774;2023-05-07T02:09:03;9.55;;;5.50;;
59950;SDS011;45812;53.540;9.774;2023-05-07T02:11:28;8.55;;;5.53;;
59950;SDS011;45812;53.540;9.774;2023-05-07T02:13:53;11.10;;;5.18;;
59950;SDS011;45812;53.540;9.774;2023-05-07T02:16:19;11.70;;;5.70;;
59950;SDS011;45812;53.540;9.774;2023-05-07T02:18:44;10.20;;;4.95;;
59950;SDS011;45812;53.540;9.774;2023-05-07T02:21:10;11.15;;;5.80;;
59950;SDS011;45812;53.540;9.774;2023-05-07T02:23:35;7.40;;;5.03;;
59950;SDS011;45812;53.540;9.774;2023-05-07T02:26:00;10.75;;;5.43;;
59950;SDS011;45812;53.540;9.774;2023-05-07T02:28:25;11.20;;;5.97;;
59950;SDS011;45812;53.540;9.774;2023-05-07T02:30:51;7.82;;;4.90;;
59950;SDS011;45812;53.540;9.774;2023-05-07T02:33:17;7.75;;;4.85;;
59950;SDS011;45812;53.540;9.774;2023-05-07T02:35:42;10.73;;;5.82;;
59950;SDS011;45812;53.540;9.774;2023-05-07T02:38:08;9.48;;;5.45;;
59950;SDS011;45812;53.540;9.774;2023-05-07T02:40:35;9.90;;;5.90;;
59950;SDS011;45812;53.540;9.774;2023-05-07T02:43:03;9.10;;;4.85;;
59950;SDS011;45812;53.540;9.774;2023-05-07T02:45:29;11.13;;;5.85;;
59950;SDS011;45812;53.540;9.774;2023-05-07T02:47:54;8.25;;;5.30;;
59950;SDS011;45812;53.540;9.774;2023-05-07T02:50:20;8.70;;;4.95;;
59950;SDS011;45812;53.540;9.774;2023-05-07T02:52:45;9.15;;;5.38;;
59950;SDS011;45812;53.540;9.774;2023-05-07T02:55:10;13.40;;;6.15;;
59950;SDS011;45812;53.540;9.774;2023-05-07T02:57:35;11.35;;;5.80;;
59950;SDS011;45812;53.540;9.774;2023-05-07T03:00:09;10.07;;;6.20;;
59950;SDS011;45812;53.540;9.774;2023-05-07T03:02:36;11.15;;;5.68;;
59950;SDS011;45812;53.540;9.774;2023-05-07T03:05:01;11.82;;;5.60;;
59950;SDS011;45812;53.540;9.774;2023-05-07T03:07:26;9.52;;;5.32;;
59950;SDS011;45812;53.540;9.774;2023-05-07T03:09:51;18.42;;;6.10;;
59950;SDS011;45812;53.540;9.774;2023-05-07T03:12:17;13.73;;;6.68;;
59950;SDS011;45812;53.540;9.774;2023-05-07T03:14:42;10.85;;;5.68;;
59950;SDS011;45812;53.540;9.774;2023-05-07T03:17:07;12.38;;;5.47;;
59950;SDS011;45812;53.540;9.774;2023-05-07T03:19:32;9.57;;;5.93;;
59950;SDS011;45812;53.540;9.774;2023-05-07T03:21:58;10.50;;;6.22;;
59950;SDS011;45812;53.540;9.774;2023-05-07T03:24:23;11.57;;;5.93;;
59950;SDS011;45812;53.540;9.774;2023-05-07T03:26:48;12.68;;;5.97;;
59950;SDS011;45812;53.540;9.774;2023-05-07T03:29:13;12.10;;;6.15;;
59950;SDS011;45812;53.540;9.774;2023-05-07T03:31:39;12.52;;;6.47;;
59950;SDS011;45812;53.540;9.774;2023-05-07T03:34:04;11.40;;;5.63;;
59950;SDS011;45812;53.540;9.774;2023-05-07T03:36:29;14.30;;;6.43;;
59950;SDS011;45812;53.540;9.774;2023-05-07T03:38:55;12.45;;;6.32;;
59950;SDS011;45812;53.540;9.774;2023-05-07T03:41:20;10.35;;;5.78;;
59950;SDS011;45812;53.540;9.774;2023-05-07T03:43:46;10.43;;;5.95;;
59950;SDS011;45812;53.540;9.774;2023-05-07T03:46:11;12.43;;;5.40;;
59950;SDS011;45812;53.540;9.774;2023-05-07T03:48:36;12.93;;;5.97;;
59950;SDS011;45812;53.540;9.774;2023-05-07T03:51:01;10.25;;;5.80;;
59950;SDS011;45812;53.540;9.774;2023-05-07T03:53:27;10.98;;;6.00;;
59950;SDS011;45812;53.540;9.774;2023-05-07T03:55:52;12.15;;;5.78;;
59950;SDS011;45812;53.540;9.774;2023-05-07T03:58:17;10.18;;;5.70;;
59950;SDS011;45812;53.540;9.774;2023-05-07T04:00:42;11.07;;;6.05;;
59950;SDS011;45812;53.540;9.774;2023-05-07T04:03:08;9.43;;;5.57;;
59950;SDS011;45812;53.540;9.774;2023-05-07T04:05:33;11.38;;;5.80;;
59950;SDS011;45812;53.540;9.774;2023-05-07T04:07:59;13.38;;;6.20;;
59950;SDS011;45812;53.540;9.774;2023-05-07T04:10:24;12.38;;;6.10;;
59950;SDS011;45812;53.540;9.774;2023-05-07T04:12:49;12.85;;;6.53;;
59950;SDS011;45812;53.540;9.774;2023-05-07T04:15:15;12.77;;;6.47;;
59950;SDS011;45812;53.540;9.774;2023-05-07T04:17:40;11.15;;;6.05;;
59950;SDS011;45812;53.540;9.774;2023-05-07T04:20:08;9.13;;;5.60;;
59950;SDS011;45812;53.540;9.774;2023-05-07T04:22:34;11.45;;;5.60;;
59950;SDS011;45812;53.540;9.774;2023-05-07T04:24:59;11.00;;;6.13;;
59950;SDS011;45812;53.540;9.774;2023-05-07T04:27:25;12.15;;;6.47;;
59950;SDS011;45812;53.540;9.774;2023-05-07T04:29:51;12.63;;;6.15;;
59950;SDS011;45812;53.540;9.774;2023-05-07T04:32:16;14.02;;;6.75;;
59950;SDS011;45812;53.540;9.774;2023-05-07T04:34:42;11.20;;;6.10;;
59950;SDS011;45812;53.540;9.774;2023-05-07T04:37:08;12.07;;;7.03;;
59950;SDS011;45812;53.540;9.774;2023-05-07T04:39:34;9.32;;;5.93;;
59950;SDS011;45812;53.540;9.774;2023-05-07T04:42:00;12.25;;;6.63;;
59950;SDS011;45812;53.540;9.774;2023-05-07T04:44:25;10.32;;;5.70;;
59950;SDS011;45812;53.540;9.774;2023-05-07T04:46:51;9.38;;;5.65;;
59950;SDS011;45812;53.540;9.774;2023-05-07T04:49:16;10.02;;;5.78;;
59950;SDS011;45812;53.540;9.774;2023-05-07T04:51:41;11.05;;;5.72;;
59950;SDS011;45812;53.540;9.774;2023-05-07T04:54:07;12.45;;;5.82;;
59950;SDS011;45812;53.540;9.774;2023-05-07T04:56:33;12.15;;;6.13;;
59950;SDS011;45812;53.540;9.774;2023-05-07T04:58:58;13.43;;;5.65;;
59950;SDS011;45812;53.540;9.774;2023-05-07T05:01:23;17.92;;;6.45;;
59950;SDS011;45812;53.540;9.774;2023-05-07T05:03:48;13.57;;;6.25;;
59950;SDS011;45812;53.540;9.774;2023-05-07T05:06:14;12.55;;;5.78;;
59950;SDS011;45812;53.540;9.774;2023-05-07T05:08:39;12.68;;;6.28;;
59950;SDS011;45812;53.540;9.774;2023-05-07T05:11:04;12.23;;;5.70;;
59950;SDS011;45812;53.540;9.774;2023-05-07T05:13:30;9.88;;;6.00;;
59950;SDS011;45812;53.540;9.774;2023-05-07T05:15:55;12.70;;;6.43;;
59950;SDS011;45812;53.540;9.774;2023-05-07T05:18:20;17.45;;;6.07;;
59950;SDS011;45812;53.540;9.774;2023-05-07T05:20:46;12.13;;;5.70;;
59950;SDS011;45812;53.540;9.774;2023-05-07T05:23:11;10.88;;;5.80;;
59950;SDS011;45812;53.540;9.774;2023-05-07T05:25:36;16.00;;;7.32;;
59950;SDS011;45812;53.540;9.774;2023-05-07T05:28:04;13.10;;;6.22;;
59950;SDS011;45812;53.540;9.774;2023-05-07T05:30:29;13.90;;;6.35;;
59950;SDS011;45812;53.540;9.774;2023-05-07T05:32:54;11.18;;;6.28;;
59950;SDS011;45812;53.540;9.774;2023-05-07T05:35:20;13.10;;;6.50;;
59950;SDS011;45812;53.540;9.774;2023-05-07T05:37:45;13.60;;;6.45;;
59950;SDS011;45812;53.540;9.774;2023-05-07T05:40:10;11.55;;;6.13;;
59950;SDS011;45812;53.540;9.774;2023-05-07T05:42:36;12.65;;;6.30;;
59950;SDS011;45812;53.540;9.774;2023-05-07T05:45:01;14.77;;;6.90;;
59950;SDS011;45812;53.540;9.774;2023-05-07T05:47:26;14.00;;;6.45;;
59950;SDS011;45812;53.540;9.774;2023-05-07T05:49:51;11.75;;;6.18;;
59950;SDS011;45812;53.540;9.774;2023-05-07T05:52:17;13.15;;;6.80;;
59950;SDS011;45812;53.540;9.774;2023-05-07T05:54:42;11.43;;;5.90;;
59950;SDS011;45812;53.540;9.774;2023-05-07T05:57:07;10.32;;;6.07;;
59950;SDS011;45812;53.540;9.774;2023-05-07T05:59:33;13.27;;;6.25;;
59950;SDS011;45812;53.540;9.774;2023-05-07T06:01:58;12.63;;;6.20;;
59950;SDS011;45812;53.540;9.774;2023-05-07T06:04:23;11.18;;;6.07;;
59950;SDS011;45812;53.540;9.774;2023-05-07T06:06:49;9.65;;;5.75;;
59950;SDS011;45812;53.540;9.774;2023-05-07T06:09:14;15.50;;;6.47;;
59950;SDS011;45812;53.540;9.774;2023-05-07T06:11:39;15.30;;;6.63;;
59950;SDS011;45812;53.540;9.774;2023-05-07T06:14:05;12.48;;;5.95;;
59950;SDS011;45812;53.540;9.774;2023-05-07T06:16:31;10.88;;;6.25;;
59950;SDS011;45812;53.540;9.774;2023-05-07T06:18:56;17.20;;;6.47;;
59950;SDS011;45812;53.540;9.774;2023-05-07T06:21:21;11.77;;;5.82;;
59950;SDS011;45812;53.540;9.774;2023-05-07T06:23:47;10.68;;;5.63;;
59950;SDS011;45812;53.540;9.774;2023-05-07T06:26:12;12.57;;;6.32;;
59950;SDS011;45812;53.540;9.774;2023-05-07T06:28:37;13.05;;;5.43;;
59950;SDS011;45812;53.540;9.774;2023-05-07T06:31:15;10.75;;;6.03;;
59950;SDS011;45812;53.540;9.774;2023-05-07T06:33:42;14.05;;;6.13;;
59950;SDS011;45812;53.540;9.774;2023-05-07T06:36:09;11.45;;;5.72;;
59950;SDS011;45812;53.540;9.774;2023-05-07T06:38:34;13.18;;;6.18;;
59950;SDS011;45812;53.540;9.774;2023-05-07T06:40:59;13.98;;;6.40;;
59950;SDS011;45812;53.540;9.774;2023-05-07T06:43:24;9.88;;;5.50;;
59950;SDS011;45812;53.540;9.774;2023-05-07T06:45:50;17.95;;;6.38;;
59950;SDS011;45812;53.540;9.774;2023-05-07T06:48:15;9.85;;;5.90;;
59950;SDS011;45812;53.540;9.774;2023-05-07T06:50:41;10.13;;;5.80;;
59950;SDS011;45812;53.540;9.774;2023-05-07T06:53:06;11.70;;;6.13;;
59950;SDS011;45812;53.540;9.774;2023-05-07T06:55:32;8.75;;;5.70;;
59950;SDS011;45812;53.540;9.774;2023-05-07T06:57:57;10.82;;;5.70;;
59950;SDS011;45812;53.540;9.774;2023-05-07T07:00:25;9.57;;;5.53;;
59950;SDS011;45812;53.540;9.774;2023-05-07T07:02:51;9.75;;;5.68;;
59950;SDS011;45812;53.540;9.774;2023-05-07T07:05:16;12.70;;;6.50;;
59950;SDS011;45812;53.540;9.774;2023-05-07T07:07:41;12.43;;;6.07;;
59950;SDS011;45812;53.540;9.774;2023-05-07T07:10:07;9.05;;;5.78;;
59950;SDS011;45812;53.540;9.774;2023-05-07T07:12:32;12.23;;;6.22;;
59950;SDS011;45812;53.540;9.774;2023-05-07T07:14:58;11.43;;;5.47;;
59950;SDS011;45812;53.540;9.774;2023-05-07T07:17:23;10.50;;;5.57;;
59950;SDS011;45812;53.540;9.774;2023-05-07T07:19:48;10.10;;;5.43;;
59950;SDS011;45812;53.540;9.774;2023-05-07T07:22:14;11.52;;;5.47;;
59950;SDS011;45812;53.540;9.774;2023-05-07T07:24:39;12.27;;;5.40;;
59950;SDS011;45812;53.540;9.774;2023-05-07T07:27:04;15.02;;;5.13;;
59950;SDS011;45812;53.540;9.774;2023-05-07T07:29:30;9.43;;;5.23;;
59950;SDS011;45812;53.540;9.774;2023-05-07T07:31:55;9.60;;;5.18;;
59950;SDS011;45812;53.540;9.774;2023-05-07T07:34:21;10.00;;;6.22;;
59950;SDS011;45812;53.540;9.774;2023-05-07T07:36:46;11.43;;;5.23;;
59950;SDS011;45812;53.540;9.774;2023-05-07T07:39:11;10.00;;;5.40;;
59950;SDS011;45812;53.540;9.774;2023-05-07T07:41:36;12.25;;;4.72;;
59950;SDS011;45812;53.540;9.774;2023-05-07T07:44:02;10.90;;;5.50;;
59950;SDS011;45812;53.540;9.774;2023-05-07T07:46:29;10.63;;;5.55;;
59950;SDS011;45812;53.540;9.774;2023-05-07T07:48:54;9.30;;;5.47;;
59950;SDS011;45812;53.540;9.774;2023-05-07T07:51:19;8.88;;;4.82;;
59950;SDS011;45812;53.540;9.774;2023-05-07T07:53:45;8.90;;;4.50;;
59950;SDS011;45812;53.540;9.774;2023-05-07T07:56:10;6.27;;;4.50;;
59950;SDS011;45812;53.540;9.774;2023-05-07T07:58:36;7.95;;;4.82;;
59950;SDS011;45812;53.540;9.774;2023-05-07T08:01:02;9.43;;;4.95;;
59950;SDS011;45812;53.540;9.774;2023-05-07T08:03:28;7.03;;;4.63;;
59950;SDS011;45812;53.540;9.774;2023-05-07T08:05:56;9.70;;;4.60;;
59950;SDS011;45812;53.540;9.774;2023-05-07T08:08:21;8.23;;;4.90;;
59950;SDS011;45812;53.540;9.774;2023-05-07T08:10:47;7.30;;;4.60;;
59950;SDS011;45812;53.540;9.774;2023-05-07T08:13:14;8.23;;;4.50;;
59950;SDS011;45812;53.540;9.774;2023-05-07T08:15:40;10.25;;;4.63;;
59950;SDS011;45812;53.540;9.774;2023-05-07T08:18:05;7.78;;;4.60;;
59950;SDS011;45812;53.540;9.774;2023-05-07T08:20:30;8.25;;;4.95;;
59950;SDS011;45812;53.540;9.774;2023-05-07T08:22:56;7.15;;;4.20;;
59950;SDS011;45812;53.540;9.774;2023-05-07T08:25:21;8.73;;;4.75;;
59950;SDS011;45812;53.540;9.774;2023-05-07T08:27:47;6.95;;;4.60;;
59950;SDS011;45812;53.540;9.774;2023-05-07T08:30:12;11.25;;;4.95;;
59950;SDS011;45812;53.540;9.774;2023-05-07T08:32:38;6.30;;;4.50;;
59950;SDS011;45812;53.540;9.774;2023-05-07T08:35:03;7.30;;;4.80;;
59950;SDS011;45812;53.540;9.774;2023-05-07T08:37:29;7.05;;;4.47;;
59950;SDS011;45812;53.540;9.774;2023-05-07T08:39:54;8.17;;;4.53;;
59950;SDS011;45812;53.540;9.774;2023-05-07T08:42:19;8.13;;;4.37;;
59950;SDS011;45812;53.540;9.774;2023-05-07T08:44:47;8.82;;;4.32;;
59950;SDS011;45812;53.540;9.774;2023-05-07T08:47:17;7.20;;;4.80;;
59950;SDS011;45812;53.540;9.774;2023-05-07T08:49:44;7.53;;;4.82;;
59950;SDS011;45812;53.540;9.774;2023-05-07T08:52:09;8.77;;;4.63;;
59950;SDS011;45812;53.540;9.774;2023-05-07T08:54:37;5.65;;;3.67;;
59950;SDS011;45812;53.540;9.774;2023-05-07T08:57:02;9.00;;;4.30;;
59950;SDS011;45812;53.540;9.774;2023-05-07T08:59:27;6.25;;;4.10;;
59950;SDS011;45812;53.540;9.774;2023-05-07T09:01:53;7.70;;;4.07;;
59950;SDS011;45812;53.540;9.774;2023-05-07T09:04:18;7.03;;;4.88;;
59950;SDS011;45812;53.540;9.774;2023-05-07T09:06:43;7.90;;;4.50;;
59950;SDS011;45812;53.540;9.774;2023-05-07T09:09:09;8.80;;;4.30;;
59950;SDS011;45812;53.540;9.774;2023-05-07T09:11:34;8.25;;;4.72;;
59950;SDS011;45812;53.540;9.774;2023-05-07T09:13:59;6.40;;;3.83;;
59950;SDS011;45812;53.540;9.774;2023-05-07T09:16:26;6.70;;;4.45;;
59950;SDS011;45812;53.540;9.774;2023-05-07T09:18:53;6.35;;;3.83;;
59950;SDS011;45812;53.540;9.774;2023-05-07T09:21:20;6.90;;;4.38;;
59950;SDS011;45812;53.540;9.774;2023-05-07T09:23:47;6.60;;;4.57;;
59950;SDS011;45812;53.540;9.774;2023-05-07T09:26:15;5.60;;;3.97;;
59950;SDS011;45812;53.540;9.774;2023-05-07T09:28:41;7.68;;;4.15;;
59950;SDS011;45812;53.540;9.774;2023-05-07T09:31:07;7.20;;;4.65;;
59950;SDS011;45812;53.540;9.774;2023-05-07T09:33:33;10.20;;;4.60;;
59950;SDS011;45812;53.540;9.774;2023-05-07T09:36:01;7.22;;;4.57;;
59950;SDS011;45812;53.540;9.774;2023-05-07T09:38:28;7.05;;;4.03;;
59950;SDS011;45812;53.540;9.774;2023-05-07T09:41:03;8.70;;;3.85;;
59950;SDS011;45812;53.540;9.774;2023-05-07T09:43:36;11.27;;;5.03;;
59950;SDS011;45812;53.540;9.774;2023-05-07T09:46:03;6.07;;;4.65;;
59950;SDS011;45812;53.540;9.774;2023-05-07T09:48:30;5.70;;;4.15;;
59950;SDS011;45812;53.540;9.774;2023-05-07T09:50:58;6.38;;;4.47;;
59950;SDS011;45812;53.540;9.774;2023-05-07T09:53:27;5.35;;;4.20;;
59950;SDS011;45812;53.540;9.774;2023-05-07T09:55:54;7.05;;;4.47;;
59950;SDS011;45812;53.540;9.774;2023-05-07T09:58:22;6.00;;;4.07;;
59950;SDS011;45812;53.540;9.774;2023-05-07T10:00:48;8.10;;;4.30;;
59950;SDS011;45812;53.540;9.774;2023-05-07T10:03:15;7.78;;;4.45;;
59950;SDS011;45812;53.540;9.774;2023-05-07T10:05:40;8.00;;;4.45;;
59950;SDS011;45812;53.540;9.774;2023-05-07T10:08:08;8.15;;;4.32;;
59950;SDS011;45812;53.540;9.774;2023-05-07T10:10:34;7.65;;;4.43;;
59950;SDS011;45812;53.540;9.774;2023-05-07T10:13:00;8.25;;;4.57;;
59950;SDS011;45812;53.540;9.774;2023-05-07T10:15:26;6.07;;;4.30;;
59950;SDS011;45812;53.540;9.774;2023-05-07T10:17:53;6.35;;;4.28;;
59950;SDS011;45812;53.540;9.774;2023-05-07T10:20:19;8.93;;;4.80;;
59950;SDS011;45812;53.540;9.774;2023-05-07T10:22:46;7.78;;;4.30;;
59950;SDS011;45812;53.540;9.774;2023-05-07T10:25:18;10.35;;;4.20;;
59950;SDS011;45812;53.540;9.774;2023-05-07T10:27:46;9.18;;;4.60;;
59950;SDS011;45812;53.540;9.774;2023-05-07T10:30:21;5.55;;;4.22;;
59950;SDS011;45812;53.540;9.774;2023-05-07T10:32:55;4.90;;;3.53;;
59950;SDS011;45812;53.540;9.774;2023-05-07T10:35:30;5.00;;;3.92;;
59950;SDS011;45812;53.540;9.774;2023-05-07T10:38:00;6.45;;;4.25;;
59950;SDS011;45812;53.540;9.774;2023-05-07T10:40:26;8.02;;;4.68;;
59950;SDS011;45812;53.540;9.774;2023-05-07T10:42:58;7.68;;;4.55;;
59950;SDS011;45812;53.540;9.774;2023-05-07T10:45:25;6.53;;;4.47;;
59950;SDS011;45812;53.540;9.774;2023-05-07T10:50:37;7.32;;;4.53;;
59950;SDS011;45812;53.540;9.774;2023-05-07T10:55:44;8.80;;;4.13;;
59950;SDS011;45812;53.540;9.774;2023-05-07T11:00:50;8.02;;;4.82;;
59950;SDS011;45812;53.540;9.774;2023-05-07T11:03:16;6.85;;;4.65;;
59950;SDS011;45812;53.540;9.774;2023-05-07T11:05:42;7.10;;;4.45;;
59950;SDS011;45812;53.540;9.774;2023-05-07T11:08:07;7.88;;;4.50;;
59950;SDS011;45812;53.540;9.774;2023-05-07T11:10:53;9.23;;;4.25;;
59950;SDS011;45812;53.540;9.774;2023-05-07T11:14:01;9.80;;;4.72;;
59950;SDS011;45812;53.540;9.774;2023-05-07T11:16:22;6.00;;;4.47;;
59950;SDS011;45812;53.540;9.774;2023-05-07T11:18:49;5.53;;;4.05;;
59950;SDS011;45812;53.540;9.774;2023-05-07T11:24:01;7.93;;;4.72;;
59950;SDS011;45812;53.540;9.774;2023-05-07T11:26:28;7.80;;;4.72;;
59950;SDS011;45812;53.540;9.774;2023-05-07T11:28:56;8.30;;;4.15;;
59950;SDS011;45812;53.540;9.774;2023-05-07T11:31:23;7.40;;;3.90;;
59950;SDS011;45812;53.540;9.774;2023-05-07T11:33:51;5.45;;;3.90;;
59950;SDS011;45812;53.540;9.774;2023-05-07T11:36:17;5.68;;;4.07;;
59950;SDS011;45812;53.540;9.774;2023-05-07T11:38:43;6.80;;;3.97;;
59950;SDS011;45812;53.540;9.774;2023-05-07T11:41:08;6.27;;;3.77;;
59950;SDS011;45812;53.540;9.774;2023-05-07T11:43:34;7.32;;;4.13;;
59950;SDS011;45812;53.540;9.774;2023-05-07T11:46:09;5.53;;;4.57;;
59950;SDS011;45812;53.540;9.774;2023-05-07T11:48:35;5.32;;;4.00;;
59950;SDS011;45812;53.540;9.774;2023-05-07T11:51:04;6.07;;;3.90;;
59950;SDS011;45812;53.540;9.774;2023-05-07T11:53:37;5.00;;;3.83;;
59950;SDS011;45812;53.540;9.774;2023-05-07T11:56:07;6.03;;;4.10;;
59950;SDS011;45812;53.540;9.774;2023-05-07T11:58:34;5.78;;;4.10;;
59950;SDS011;45812;53.540;9.774;2023-05-07T12:01:00;6.22;;;3.83;;
59950;SDS011;45812;53.540;9.774;2023-05-07T12:03:25;5.50;;;3.78;;
59950;SDS011;45812;53.540;9.774;2023-05-07T12:05:51;5.32;;;3.95;;
59950;SDS011;45812;53.540;9.774;2023-05-07T12:08:19;5.70;;;3.75;;
59950;SDS011;45812;53.540;9.774;2023-05-07T12:10:47;4.85;;;3.45;;
59950;SDS011;45812;53.540;9.774;2023-05-07T12:13:15;7.55;;;4.10;;
59950;SDS011;45812;53.540;9.774;2023-05-07T12:15:41;6.25;;;4.07;;
59950;SDS011;45812;53.540;9.774;2023-05-07T12:18:07;8.27;;;3.80;;
59950;SDS011;45812;53.540;9.774;2023-05-07T12:20:33;7.60;;;4.00;;
59950;SDS011;45812;53.540;9.774;2023-05-07T12:23:00;7.25;;;3.97;;
59950;SDS011;45812;53.540;9.774;2023-05-07T12:25:26;6.22;;;3.92;;
59950;SDS011;45812;53.540;9.774;2023-05-07T12:27:54;5.03;;;3.58;;
59950;SDS011;45812;53.540;9.774;2023-05-07T12:30:20;4.07;;;3.67;;
59950;SDS011;45812;53.540;9.774;2023-05-07T12:32:45;8.30;;;3.72;;
59950;SDS011;45812;53.540;9.774;2023-05-07T12:35:10;4.10;;;3.50;;
59950;SDS011;45812;53.540;9.774;2023-05-07T12:37:36;5.70;;;3.67;;
59950;SDS011;45812;53.540;9.774;2023-05-07T12:42:37;4.03;;;3.63;;
59950;SDS011;45812;53.540;9.774;2023-05-07T12:45:11;3.80;;;3.40;;
59950;SDS011;45812;53.540;9.774;2023-05-07T12:47:37;4.38;;;3.22;;
59950;SDS011;45812;53.540;9.774;2023-05-07T12:50:04;3.60;;;3.08;;
59950;SDS011;45812;53.540;9.774;2023-05-07T12:52:30;3.45;;;2.92;;
59950;SDS011;45812;53.540;9.774;2023-05-07T12:54:56;4.55;;;3.13;;
59950;SDS011;45812;53.540;9.774;2023-05-07T12:57:21;3.43;;;3.13;;
59950;SDS011;45812;53.540;9.774;2023-05-07T12:59:46;6.17;;;3.40;;
59950;SDS011;45812;53.540;9.774;2023-05-07T13:02:12;4.40;;;3.35;;
59950;SDS011;45812;53.540;9.774;2023-05-07T13:04:37;4.17;;;2.87;;
59950;SDS011;45812;53.540;9.774;2023-05-07T13:07:02;4.07;;;2.90;;
59950;SDS011;45812;53.540;9.774;2023-05-07T13:09:28;8.27;;;4.18;;
59950;SDS011;45812;53.540;9.774;2023-05-07T13:11:54;8.48;;;4.45;;
59950;SDS011;45812;53.540;9.774;2023-05-07T13:14:19;3.88;;;2.85;;
59950;SDS011;45812;53.540;9.774;2023-05-07T13:16:45;3.58;;;3.20;;
59950;SDS011;45812;53.540;9.774;2023-05-07T13:19:11;7.07;;;4.25;;
59950;SDS011;45812;53.540;9.774;2023-05-07T13:21:36;5.67;;;3.30;;
59950;SDS011;45812;53.540;9.774;2023-05-07T13:24:02;3.60;;;3.30;;
59950;SDS011;45812;53.540;9.774;2023-05-07T13:26:27;4.00;;;3.60;;
59950;SDS011;45812;53.540;9.774;2023-05-07T13:28:53;3.23;;;2.93;;
59950;SDS011;45812;53.540;9.774;2023-05-07T13:31:19;5.15;;;3.78;;
59950;SDS011;45812;53.540;9.774;2023-05-07T13:33:45;5.25;;;2.78;;
59950;SDS011;45812;53.540;9.774;2023-05-07T13:36:11;3.38;;;3.08;;
59950;SDS011;45812;53.540;9.774;2023-05-07T13:38:36;4.57;;;2.77;;
59950;SDS011;45812;53.540;9.774;2023-05-07T13:41:01;3.33;;;2.90;;
59950;SDS011;45812;53.540;9.774;2023-05-07T13:43:26;4.27;;;2.80;;
59950;SDS011;45812;53.540;9.774;2023-05-07T13:45:52;3.70;;;2.70;;
59950;SDS011;45812;53.540;9.774;2023-05-07T13:48:17;2.80;;;2.60;;
59950;SDS011;45812;53.540;9.774;2023-05-07T13:50:42;4.17;;;2.70;;
59950;SDS011;45812;53.540;9.774;2023-05-07T13:53:07;2.80;;;2.40;;
59950;SDS011;45812;53.540;9.774;2023-05-07T13:55:33;2.88;;;2.58;;
59950;SDS011;45812;53.540;9.774;2023-05-07T13:57:59;4.57;;;2.47;;
59950;SDS011;45812;53.540;9.774;2023-05-07T14:00:26;3.85;;;2.63;;
59950;SDS011;45812;53.540;9.774;2023-05-07T14:02:52;3.08;;;2.47;;
59950;SDS011;45812;53.540;9.774;2023-05-07T14:05:18;2.50;;;2.30;;
59950;SDS011;45812;53.540;9.774;2023-05-07T14:07:43;2.75;;;2.13;;
59950;SDS011;45812;53.540;9.774;2023-05-07T14:10:08;2.92;;;2.63;;
59950;SDS011;45812;53.540;9.774;2023-05-07T14:12:35;3.00;;;2.65;;
59950;SDS011;45812;53.540;9.774;2023-05-07T14:15:01;3.33;;;2.97;;
59950;SDS011;45812;53.540;9.774;2023-05-07T14:17:26;2.87;;;2.57;;
59950;SDS011;45812;53.540;9.774;2023-05-07T14:19:52;3.35;;;2.80;;
59950;SDS011;45812;53.540;9.774;2023-05-07T14:22:19;2.50;;;2.30;;
59950;SDS011;45812;53.540;9.774;2023-05-07T14:24:45;2.17;;;2.08;;
59950;SDS011;45812;53.540;9.774;2023-05-07T14:27:10;2.57;;;2.33;;
59950;SDS011;45812;53.540;9.774;2023-05-07T14:29:36;3.38;;;1.85;;
59950;SDS011;45812;53.540;9.774;2023-05-07T14:32:01;3.40;;;2.17;;
59950;SDS011;45812;53.540;9.774;2023-05-07T14:34:28;2.03;;;1.90;;
59950;SDS011;45812;53.540;9.774;2023-05-07T14:36:53;3.67;;;2.27;;
59950;SDS011;45812;53.540;9.774;2023-05-07T14:39:18;2.43;;;2.20;;
59950;SDS011;45812;53.540;9.774;2023-05-07T14:41:43;3.30;;;1.80;;
59950;SDS011;45812;53.540;9.774;2023-05-07T14:44:09;2.60;;;2.40;;
59950;SDS011;45812;53.540;9.774;2023-05-07T14:46:34;3.67;;;2.20;;